sensor_id;sensor_type;location;lat;lon;timestamp;P1;durP1;ratioP1;P2;durP2;ratioP2
80748;SDS011;70145;53.746;9.970;2023-06-10T00:01:38;7.17;;;2.60;;
80748;SDS011;70145;53.746;9.970;2023-06-10T00:04:03;6.32;;;2.08;;
80748;SDS011;70145;53.746;9.970;2023-06-10T00:06:29;5.50;;;2.35;;
80748;SDS011;70145;53.746;9.970;2023-06-10T00:09:04;5.65;;;2.60;;
80748;SDS011;70145;53.746;9.970;2023-06-10T00:11:33;4.45;;;2.22;;
80748;SDS011;70145;53.746;9.970;2023-06-10T00:13:58;4.53;;;1.73;;
80748;SDS011;70145;53.746;9.970;2023-06-10T00:16:24;4.75;;;2.20;;
80748;SDS011;70145;53.746;9.970;2023-06-10T00:18:50;9.77;;;2.72;;
80748;SDS011;70145;53.746;9.970;2023-06-10T00:21:16;4.20;;;1.77;;
80748;SDS011;70145;53.746;9.970;2023-06-10T00:23:41;4.60;;;2.30;;
80748;SDS011;70145;53.746;9.970;2023-06-10T00:26:07;4.47;;;2.28;;
80748;SDS011;70145;53.746;9.970;2023-06-10T00:28:32;4.88;;;2.08;;
80748;SDS011;70145;53.746;9.970;2023-06-10T00:30:58;8.20;;;2.30;;
80748;SDS011;70145;53.746;9.970;2023-06-10T00:33:23;7.57;;;1.90;;
80748;SDS011;70145;53.746;9.970;2023-06-10T00:35:48;3.47;;;1.60;;
80748;SDS011;70145;53.746;9.970;2023-06-10T00:38:14;3.97;;;2.00;;
80748;SDS011;70145;53.746;9.970;2023-06-10T00:40:40;5.60;;;1.63;;
80748;SDS011;70145;53.746;9.970;2023-06-10T00:43:05;6.68;;;2.42;;
80748;SDS011;70145;53.746;9.970;2023-06-10T00:45:31;4.10;;;1.92;;
80748;SDS011;70145;53.746;9.970;2023-06-10T00:47:57;4.97;;;2.10;;
80748;SDS011;70145;53.746;9.970;2023-06-10T00:50:23;5.05;;;2.15;;
80748;SDS011;70145;53.746;9.970;2023-06-10T00:52:48;3.75;;;2.15;;
80748;SDS011;70145;53.746;9.970;2023-06-10T00:55:16;3.33;;;1.90;;
80748;SDS011;70145;53.746;9.970;2023-06-10T00:57:41;4.93;;;2.03;;
80748;SDS011;70145;53.746;9.970;2023-06-10T01:00:09;4.93;;;1.90;;
80748;SDS011;70145;53.746;9.970;2023-06-10T01:02:35;6.10;;;2.00;;
80748;SDS011;70145;53.746;9.970;2023-06-10T01:05:01;3.05;;;1.60;;
80748;SDS011;70145;53.746;9.970;2023-06-10T01:10:20;3.75;;;1.70;;
80748;SDS011;70145;53.746;9.970;2023-06-10T01:15:27;4.53;;;2.10;;
80748;SDS011;70145;53.746;9.970;2023-06-10T01:17:58;3.70;;;1.60;;
80748;SDS011;70145;53.746;9.970;2023-06-10T01:20:29;3.78;;;2.00;;
80748;SDS011;70145;53.746;9.970;2023-06-10T01:22:57;6.30;;;1.85;;
80748;SDS011;70145;53.746;9.970;2023-06-10T01:25:23;5.43;;;1.88;;
80748;SDS011;70145;53.746;9.970;2023-06-10T01:28:01;4.25;;;1.85;;
80748;SDS011;70145;53.746;9.970;2023-06-10T01:30:30;6.28;;;1.70;;
80748;SDS011;70145;53.746;9.970;2023-06-10T01:33:02;3.75;;;1.58;;
80748;SDS011;70145;53.746;9.970;2023-06-10T01:35:31;3.50;;;1.40;;
80748;SDS011;70145;53.746;9.970;2023-06-10T01:37:57;5.60;;;1.92;;
80748;SDS011;70145;53.746;9.970;2023-06-10T01:40:25;3.17;;;1.67;;
80748;SDS011;70145;53.746;9.970;2023-06-10T01:42:51;2.42;;;1.48;;
80748;SDS011;70145;53.746;9.970;2023-06-10T01:45:17;2.72;;;1.55;;
80748;SDS011;70145;53.746;9.970;2023-06-10T01:47:42;3.15;;;1.92;;
80748;SDS011;70145;53.746;9.970;2023-06-10T01:50:08;3.60;;;1.50;;
80748;SDS011;70145;53.746;9.970;2023-06-10T01:52:33;2.80;;;1.48;;
80748;SDS011;70145;53.746;9.970;2023-06-10T01:54:59;5.40;;;1.35;;
80748;SDS011;70145;53.746;9.970;2023-06-10T01:57:24;2.55;;;1.20;;
80748;SDS011;70145;53.746;9.970;2023-06-10T01:59:49;5.27;;;1.63;;
80748;SDS011;70145;53.746;9.970;2023-06-10T02:02:15;3.13;;;1.67;;
80748;SDS011;70145;53.746;9.970;2023-06-10T02:04:40;3.97;;;1.65;;
80748;SDS011;70145;53.746;9.970;2023-06-10T02:07:06;4.47;;;1.92;;
80748;SDS011;70145;53.746;9.970;2023-06-10T02:09:31;2.53;;;1.30;;
80748;SDS011;70145;53.746;9.970;2023-06-10T02:11:57;4.72;;;1.42;;
80748;SDS011;70145;53.746;9.970;2023-06-10T02:14:22;2.97;;;1.10;;
80748;SDS011;70145;53.746;9.970;2023-06-10T02:16:48;2.47;;;1.40;;
80748;SDS011;70145;53.746;9.970;2023-06-10T02:19:13;4.00;;;1.50;;
80748;SDS011;70145;53.746;9.970;2023-06-10T02:21:39;4.28;;;1.60;;
80748;SDS011;70145;53.746;9.970;2023-06-10T02:24:04;4.70;;;1.90;;
80748;SDS011;70145;53.746;9.970;2023-06-10T02:26:30;3.53;;;1.52;;
80748;SDS011;70145;53.746;9.970;2023-06-10T02:28:56;4.85;;;1.70;;
80748;SDS011;70145;53.746;9.970;2023-06-10T02:31:22;5.80;;;2.22;;
80748;SDS011;70145;53.746;9.970;2023-06-10T02:33:48;5.20;;;1.73;;
80748;SDS011;70145;53.746;9.970;2023-06-10T02:36:13;3.90;;;1.27;;
80748;SDS011;70145;53.746;9.970;2023-06-10T02:38:40;3.72;;;1.50;;
80748;SDS011;70145;53.746;9.970;2023-06-10T02:41:05;2.35;;;1.20;;
80748;SDS011;70145;53.746;9.970;2023-06-10T02:43:31;3.17;;;1.40;;
80748;SDS011;70145;53.746;9.970;2023-06-10T02:45:56;4.37;;;1.70;;
80748;SDS011;70145;53.746;9.970;2023-06-10T02:48:23;2.57;;;1.33;;
80748;SDS011;70145;53.746;9.970;2023-06-10T02:50:49;2.88;;;1.38;;
80748;SDS011;70145;53.746;9.970;2023-06-10T02:53:14;2.20;;;1.43;;
80748;SDS011;70145;53.746;9.970;2023-06-10T02:55:39;5.53;;;1.80;;
80748;SDS011;70145;53.746;9.970;2023-06-10T02:58:06;3.17;;;1.45;;
80748;SDS011;70145;53.746;9.970;2023-06-10T03:00:35;3.20;;;1.35;;
80748;SDS011;70145;53.746;9.970;2023-06-10T03:03:02;5.05;;;1.65;;
80748;SDS011;70145;53.746;9.970;2023-06-10T03:05:31;2.60;;;1.65;;
80748;SDS011;70145;53.746;9.970;2023-06-10T03:07:57;3.08;;;1.52;;
80748;SDS011;70145;53.746;9.970;2023-06-10T03:10:22;5.13;;;1.50;;
80748;SDS011;70145;53.746;9.970;2023-06-10T03:12:48;2.30;;;1.48;;
80748;SDS011;70145;53.746;9.970;2023-06-10T03:15:13;5.83;;;1.70;;
80748;SDS011;70145;53.746;9.970;2023-06-10T03:17:39;3.20;;;1.30;;
80748;SDS011;70145;53.746;9.970;2023-06-10T03:20:05;2.70;;;0.90;;
80748;SDS011;70145;53.746;9.970;2023-06-10T03:22:31;2.50;;;1.40;;
80748;SDS011;70145;53.746;9.970;2023-06-10T03:24:56;2.97;;;1.83;;
80748;SDS011;70145;53.746;9.970;2023-06-10T03:27:22;2.85;;;1.50;;
80748;SDS011;70145;53.746;9.970;2023-06-10T03:29:47;3.55;;;1.40;;
80748;SDS011;70145;53.746;9.970;2023-06-10T03:32:12;2.30;;;1.20;;
80748;SDS011;70145;53.746;9.970;2023-06-10T03:34:38;4.80;;;1.40;;
80748;SDS011;70145;53.746;9.970;2023-06-10T03:37:03;4.65;;;1.60;;
80748;SDS011;70145;53.746;9.970;2023-06-10T03:39:29;2.72;;;1.20;;
80748;SDS011;70145;53.746;9.970;2023-06-10T03:41:55;4.22;;;1.45;;
80748;SDS011;70145;53.746;9.970;2023-06-10T03:44:22;4.40;;;1.42;;
80748;SDS011;70145;53.746;9.970;2023-06-10T03:46:47;4.00;;;1.02;;
80748;SDS011;70145;53.746;9.970;2023-06-10T03:49:12;2.70;;;1.40;;
80748;SDS011;70145;53.746;9.970;2023-06-10T03:51:40;2.50;;;1.10;;
80748;SDS011;70145;53.746;9.970;2023-06-10T03:54:05;2.47;;;1.35;;
80748;SDS011;70145;53.746;9.970;2023-06-10T03:56:31;4.13;;;1.67;;
80748;SDS011;70145;53.746;9.970;2023-06-10T03:58:56;2.53;;;1.25;;
80748;SDS011;70145;53.746;9.970;2023-06-10T04:01:21;9.63;;;2.43;;
80748;SDS011;70145;53.746;9.970;2023-06-10T04:03:48;2.83;;;1.30;;
80748;SDS011;70145;53.746;9.970;2023-06-10T04:06:15;2.13;;;1.10;;
80748;SDS011;70145;53.746;9.970;2023-06-10T04:08:41;3.65;;;1.23;;
80748;SDS011;70145;53.746;9.970;2023-06-10T04:11:07;4.93;;;1.45;;
80748;SDS011;70145;53.746;9.970;2023-06-10T04:13:33;5.15;;;2.25;;
80748;SDS011;70145;53.746;9.970;2023-06-10T04:15:58;6.00;;;1.30;;
80748;SDS011;70145;53.746;9.970;2023-06-10T04:18:24;3.90;;;1.38;;
80748;SDS011;70145;53.746;9.970;2023-06-10T04:20:50;6.70;;;1.95;;
80748;SDS011;70145;53.746;9.970;2023-06-10T04:23:15;5.30;;;1.30;;
80748;SDS011;70145;53.746;9.970;2023-06-10T04:25:40;3.00;;;1.40;;
80748;SDS011;70145;53.746;9.970;2023-06-10T04:28:05;2.70;;;1.85;;
80748;SDS011;70145;53.746;9.970;2023-06-10T04:30:31;4.60;;;1.40;;
80748;SDS011;70145;53.746;9.970;2023-06-10T04:32:56;3.72;;;1.10;;
80748;SDS011;70145;53.746;9.970;2023-06-10T04:35:22;2.72;;;1.15;;
80748;SDS011;70145;53.746;9.970;2023-06-10T04:37:47;4.65;;;1.30;;
80748;SDS011;70145;53.746;9.970;2023-06-10T04:40:13;3.30;;;0.90;;
80748;SDS011;70145;53.746;9.970;2023-06-10T04:42:38;5.35;;;1.23;;
80748;SDS011;70145;53.746;9.970;2023-06-10T04:45:04;4.13;;;1.20;;
80748;SDS011;70145;53.746;9.970;2023-06-10T04:47:29;3.50;;;1.42;;
80748;SDS011;70145;53.746;9.970;2023-06-10T04:49:58;5.88;;;1.30;;
80748;SDS011;70145;53.746;9.970;2023-06-10T04:52:23;3.80;;;1.00;;
80748;SDS011;70145;53.746;9.970;2023-06-10T04:54:49;2.70;;;1.10;;
80748;SDS011;70145;53.746;9.970;2023-06-10T04:57:14;3.60;;;1.52;;
80748;SDS011;70145;53.746;9.970;2023-06-10T04:59:40;5.00;;;1.33;;
80748;SDS011;70145;53.746;9.970;2023-06-10T05:02:05;5.18;;;1.38;;
80748;SDS011;70145;53.746;9.970;2023-06-10T05:04:31;3.73;;;1.17;;
80748;SDS011;70145;53.746;9.970;2023-06-10T05:06:56;3.43;;;0.90;;
80748;SDS011;70145;53.746;9.970;2023-06-10T05:09:21;2.67;;;1.10;;
80748;SDS011;70145;53.746;9.970;2023-06-10T05:11:46;6.17;;;1.00;;
80748;SDS011;70145;53.746;9.970;2023-06-10T05:14:12;4.40;;;1.08;;
80748;SDS011;70145;53.746;9.970;2023-06-10T05:16:37;4.95;;;1.55;;
80748;SDS011;70145;53.746;9.970;2023-06-10T05:19:03;2.78;;;1.00;;
80748;SDS011;70145;53.746;9.970;2023-06-10T05:21:29;4.38;;;1.60;;
80748;SDS011;70145;53.746;9.970;2023-06-10T05:23:54;3.10;;;0.70;;
80748;SDS011;70145;53.746;9.970;2023-06-10T05:26:20;7.63;;;1.83;;
80748;SDS011;70145;53.746;9.970;2023-06-10T05:28:45;4.57;;;1.50;;
80748;SDS011;70145;53.746;9.970;2023-06-10T05:31:10;6.77;;;1.43;;
80748;SDS011;70145;53.746;9.970;2023-06-10T05:33:35;5.20;;;1.33;;
80748;SDS011;70145;53.746;9.970;2023-06-10T05:36:01;5.65;;;1.02;;
80748;SDS011;70145;53.746;9.970;2023-06-10T05:38:27;4.35;;;0.82;;
80748;SDS011;70145;53.746;9.970;2023-06-10T05:40:52;4.97;;;1.00;;
80748;SDS011;70145;53.746;9.970;2023-06-10T05:43:17;4.73;;;0.93;;
80748;SDS011;70145;53.746;9.970;2023-06-10T05:45:42;4.07;;;0.80;;
80748;SDS011;70145;53.746;9.970;2023-06-10T05:48:08;5.80;;;0.83;;
80748;SDS011;70145;53.746;9.970;2023-06-10T05:50:33;4.70;;;0.83;;
80748;SDS011;70145;53.746;9.970;2023-06-10T05:53:03;4.95;;;1.15;;
80748;SDS011;70145;53.746;9.970;2023-06-10T05:55:29;4.00;;;1.00;;
80748;SDS011;70145;53.746;9.970;2023-06-10T05:58:00;6.13;;;1.10;;
80748;SDS011;70145;53.746;9.970;2023-06-10T06:00:26;6.43;;;0.80;;
80748;SDS011;70145;53.746;9.970;2023-06-10T06:02:52;5.85;;;0.90;;
80748;SDS011;70145;53.746;9.970;2023-06-10T06:05:17;4.63;;;0.70;;
80748;SDS011;70145;53.746;9.970;2023-06-10T06:07:43;4.72;;;1.15;;
80748;SDS011;70145;53.746;9.970;2023-06-10T06:10:08;4.43;;;1.00;;
80748;SDS011;70145;53.746;9.970;2023-06-10T06:12:34;4.47;;;1.15;;
80748;SDS011;70145;53.746;9.970;2023-06-10T06:14:59;3.75;;;1.10;;
80748;SDS011;70145;53.746;9.970;2023-06-10T06:17:24;4.30;;;1.27;;
80748;SDS011;70145;53.746;9.970;2023-06-10T06:19:50;4.65;;;1.13;;
80748;SDS011;70145;53.746;9.970;2023-06-10T06:22:15;4.17;;;0.83;;
80748;SDS011;70145;53.746;9.970;2023-06-10T06:24:44;5.70;;;1.05;;
80748;SDS011;70145;53.746;9.970;2023-06-10T06:27:10;2.77;;;0.80;;
80748;SDS011;70145;53.746;9.970;2023-06-10T06:29:35;3.72;;;0.93;;
80748;SDS011;70145;53.746;9.970;2023-06-10T06:32:00;3.55;;;1.08;;
80748;SDS011;70145;53.746;9.970;2023-06-10T06:34:26;3.27;;;1.00;;
80748;SDS011;70145;53.746;9.970;2023-06-10T06:36:51;4.30;;;0.97;;
80748;SDS011;70145;53.746;9.970;2023-06-10T06:39:16;7.43;;;1.17;;
80748;SDS011;70145;53.746;9.970;2023-06-10T06:41:41;5.30;;;1.20;;
80748;SDS011;70145;53.746;9.970;2023-06-10T06:44:07;4.30;;;1.20;;
80748;SDS011;70145;53.746;9.970;2023-06-10T06:46:32;6.15;;;1.02;;
80748;SDS011;70145;53.746;9.970;2023-06-10T06:48:57;2.57;;;0.70;;
80748;SDS011;70145;53.746;9.970;2023-06-10T06:51:23;5.40;;;1.20;;
80748;SDS011;70145;53.746;9.970;2023-06-10T06:53:48;3.30;;;0.83;;
80748;SDS011;70145;53.746;9.970;2023-06-10T06:56:15;5.80;;;1.27;;
80748;SDS011;70145;53.746;9.970;2023-06-10T06:58:41;5.93;;;1.40;;
80748;SDS011;70145;53.746;9.970;2023-06-10T07:01:06;4.22;;;1.10;;
80748;SDS011;70145;53.746;9.970;2023-06-10T07:03:32;3.75;;;1.42;;
80748;SDS011;70145;53.746;9.970;2023-06-10T07:05:57;3.00;;;0.87;;
80748;SDS011;70145;53.746;9.970;2023-06-10T07:08:22;3.45;;;0.98;;
80748;SDS011;70145;53.746;9.970;2023-06-10T07:10:48;3.95;;;1.20;;
80748;SDS011;70145;53.746;9.970;2023-06-10T07:13:14;3.38;;;1.00;;
80748;SDS011;70145;53.746;9.970;2023-06-10T07:15:39;3.33;;;1.38;;
80748;SDS011;70145;53.746;9.970;2023-06-10T07:18:04;3.88;;;0.98;;
80748;SDS011;70145;53.746;9.970;2023-06-10T07:20:30;2.72;;;1.40;;
80748;SDS011;70145;53.746;9.970;2023-06-10T07:22:55;3.45;;;1.20;;
80748;SDS011;70145;53.746;9.970;2023-06-10T07:25:21;4.10;;;1.15;;
80748;SDS011;70145;53.746;9.970;2023-06-10T07:27:46;6.03;;;1.40;;
80748;SDS011;70145;53.746;9.970;2023-06-10T07:30:12;4.88;;;1.60;;
80748;SDS011;70145;53.746;9.970;2023-06-10T07:32:37;6.15;;;0.93;;
80748;SDS011;70145;53.746;9.970;2023-06-10T07:35:03;3.57;;;1.23;;
80748;SDS011;70145;53.746;9.970;2023-06-10T07:37:31;6.47;;;1.45;;
80748;SDS011;70145;53.746;9.970;2023-06-10T07:39:56;3.22;;;0.90;;
80748;SDS011;70145;53.746;9.970;2023-06-10T07:42:22;4.10;;;1.23;;
80748;SDS011;70145;53.746;9.970;2023-06-10T07:44:47;6.70;;;1.50;;
80748;SDS011;70145;53.746;9.970;2023-06-10T07:47:12;4.10;;;1.20;;
80748;SDS011;70145;53.746;9.970;2023-06-10T07:49:37;4.93;;;1.60;;
80748;SDS011;70145;53.746;9.970;2023-06-10T07:52:03;5.78;;;1.55;;
80748;SDS011;70145;53.746;9.970;2023-06-10T07:54:28;3.50;;;1.38;;
80748;SDS011;70145;53.746;9.970;2023-06-10T07:56:54;3.75;;;1.23;;
80748;SDS011;70145;53.746;9.970;2023-06-10T07:59:19;4.55;;;1.02;;
80748;SDS011;70145;53.746;9.970;2023-06-10T08:01:45;5.53;;;1.75;;
80748;SDS011;70145;53.746;9.970;2023-06-10T08:04:10;5.78;;;1.50;;
80748;SDS011;70145;53.746;9.970;2023-06-10T08:06:35;5.82;;;1.42;;
80748;SDS011;70145;53.746;9.970;2023-06-10T08:09:02;6.05;;;1.23;;
80748;SDS011;70145;53.746;9.970;2023-06-10T08:11:28;5.43;;;1.58;;
80748;SDS011;70145;53.746;9.970;2023-06-10T08:13:54;4.00;;;1.40;;
80748;SDS011;70145;53.746;9.970;2023-06-10T08:16:20;4.00;;;1.42;;
80748;SDS011;70145;53.746;9.970;2023-06-10T08:18:45;4.87;;;1.37;;
80748;SDS011;70145;53.746;9.970;2023-06-10T08:21:10;6.50;;;1.48;;
80748;SDS011;70145;53.746;9.970;2023-06-10T08:23:36;4.47;;;1.35;;
80748;SDS011;70145;53.746;9.970;2023-06-10T08:26:01;5.57;;;1.60;;
80748;SDS011;70145;53.746;9.970;2023-06-10T08:28:29;4.78;;;1.40;;
80748;SDS011;70145;53.746;9.970;2023-06-10T08:30:58;4.82;;;1.92;;
80748;SDS011;70145;53.746;9.970;2023-06-10T08:33:23;4.82;;;1.65;;
80748;SDS011;70145;53.746;9.970;2023-06-10T08:35:48;3.60;;;1.52;;
80748;SDS011;70145;53.746;9.970;2023-06-10T08:38:13;5.85;;;1.77;;
80748;SDS011;70145;53.746;9.970;2023-06-10T08:40:39;4.20;;;1.40;;
80748;SDS011;70145;53.746;9.970;2023-06-10T08:43:05;4.43;;;1.33;;
80748;SDS011;70145;53.746;9.970;2023-06-10T08:45:32;5.13;;;1.55;;
80748;SDS011;70145;53.746;9.970;2023-06-10T08:48:00;5.10;;;2.55;;
80748;SDS011;70145;53.746;9.970;2023-06-10T08:50:31;4.00;;;1.63;;
80748;SDS011;70145;53.746;9.970;2023-06-10T08:52:59;3.58;;;1.25;;
80748;SDS011;70145;53.746;9.970;2023-06-10T08:55:33;4.38;;;1.70;;
80748;SDS011;70145;53.746;9.970;2023-06-10T08:58:01;5.65;;;1.52;;
80748;SDS011;70145;53.746;9.970;2023-06-10T09:00:27;7.07;;;2.08;;
80748;SDS011;70145;53.746;9.970;2023-06-10T09:02:57;6.97;;;1.60;;
80748;SDS011;70145;53.746;9.970;2023-06-10T09:05:23;7.93;;;1.50;;
80748;SDS011;70145;53.746;9.970;2023-06-10T09:07:51;5.43;;;1.60;;
80748;SDS011;70145;53.746;9.970;2023-06-10T09:10:17;4.18;;;1.27;;
80748;SDS011;70145;53.746;9.970;2023-06-10T09:12:43;3.85;;;1.48;;
80748;SDS011;70145;53.746;9.970;2023-06-10T09:15:08;3.50;;;1.60;;
80748;SDS011;70145;53.746;9.970;2023-06-10T09:17:34;4.20;;;1.92;;
80748;SDS011;70145;53.746;9.970;2023-06-10T09:20:01;5.50;;;1.80;;
80748;SDS011;70145;53.746;9.970;2023-06-10T09:22:27;7.38;;;2.05;;
80748;SDS011;70145;53.746;9.970;2023-06-10T09:25:01;3.55;;;1.38;;
80748;SDS011;70145;53.746;9.970;2023-06-10T09:27:29;4.30;;;1.67;;
80748;SDS011;70145;53.746;9.970;2023-06-10T09:29:55;6.65;;;1.95;;
80748;SDS011;70145;53.746;9.970;2023-06-10T09:32:22;3.63;;;1.67;;
80748;SDS011;70145;53.746;9.970;2023-06-10T09:34:49;6.03;;;1.92;;
80748;SDS011;70145;53.746;9.970;2023-06-10T09:37:24;6.78;;;1.48;;
80748;SDS011;70145;53.746;9.970;2023-06-10T09:40:06;7.50;;;1.95;;
80748;SDS011;70145;53.746;9.970;2023-06-10T09:42:33;6.35;;;1.70;;
80748;SDS011;70145;53.746;9.970;2023-06-10T09:45:00;3.10;;;1.50;;
80748;SDS011;70145;53.746;9.970;2023-06-10T09:47:26;3.95;;;1.80;;
80748;SDS011;70145;53.746;9.970;2023-06-10T09:49:51;5.68;;;2.03;;
80748;SDS011;70145;53.746;9.970;2023-06-10T09:54:50;6.45;;;1.90;;
80748;SDS011;70145;53.746;9.970;2023-06-10T09:57:17;6.47;;;1.95;;
80748;SDS011;70145;53.746;9.970;2023-06-10T09:59:42;10.48;;;2.08;;
80748;SDS011;70145;53.746;9.970;2023-06-10T10:02:13;6.38;;;3.33;;
80748;SDS011;70145;53.746;9.970;2023-06-10T10:04:42;10.48;;;2.83;;
80748;SDS011;70145;53.746;9.970;2023-06-10T10:07:09;3.78;;;1.92;;
80748;SDS011;70145;53.746;9.970;2023-06-10T10:09:38;5.38;;;2.00;;
80748;SDS011;70145;53.746;9.970;2023-06-10T10:14:35;5.85;;;1.75;;
80748;SDS011;70145;53.746;9.970;2023-06-10T10:17:01;6.55;;;1.80;;
80748;SDS011;70145;53.746;9.970;2023-06-10T10:19:37;20.05;;;3.00;;
80748;SDS011;70145;53.746;9.970;2023-06-10T10:22:10;4.80;;;1.63;;
80748;SDS011;70145;53.746;9.970;2023-06-10T10:24:59;6.28;;;2.05;;
80748;SDS011;70145;53.746;9.970;2023-06-10T10:27:28;3.80;;;1.95;;
80748;SDS011;70145;53.746;9.970;2023-06-10T10:30:06;4.93;;;2.42;;
80748;SDS011;70145;53.746;9.970;2023-06-10T10:33:40;5.35;;;2.00;;
80748;SDS011;70145;53.746;9.970;2023-06-10T10:35:55;6.60;;;1.92;;
80748;SDS011;70145;53.746;9.970;2023-06-10T10:38:22;6.93;;;2.38;;
80748;SDS011;70145;53.746;9.970;2023-06-10T10:40:48;4.70;;;2.42;;
80748;SDS011;70145;53.746;9.970;2023-06-10T10:43:13;11.27;;;2.78;;
80748;SDS011;70145;53.746;9.970;2023-06-10T10:45:40;6.00;;;2.15;;
80748;SDS011;70145;53.746;9.970;2023-06-10T10:48:07;5.73;;;2.10;;
80748;SDS011;70145;53.746;9.970;2023-06-10T10:50:36;4.65;;;1.77;;
80748;SDS011;70145;53.746;9.970;2023-06-10T10:53:03;5.57;;;1.75;;
80748;SDS011;70145;53.746;9.970;2023-06-10T10:55:29;5.60;;;2.00;;
80748;SDS011;70145;53.746;9.970;2023-06-10T11:00:31;4.55;;;1.95;;
80748;SDS011;70145;53.746;9.970;2023-06-10T11:03:05;6.03;;;2.08;;
80748;SDS011;70145;53.746;9.970;2023-06-10T11:08:01;4.32;;;2.08;;
80748;SDS011;70145;53.746;9.970;2023-06-10T11:10:30;6.13;;;1.77;;
80748;SDS011;70145;53.746;9.970;2023-06-10T11:13:06;3.95;;;2.20;;
80748;SDS011;70145;53.746;9.970;2023-06-10T11:15:39;5.72;;;2.33;;
80748;SDS011;70145;53.746;9.970;2023-06-10T11:23:47;7.07;;;2.40;;
80748;SDS011;70145;53.746;9.970;2023-06-10T11:29:05;5.40;;;2.10;;
80748;SDS011;70145;53.746;9.970;2023-06-10T11:31:35;4.93;;;2.55;;
80748;SDS011;70145;53.746;9.970;2023-06-10T11:34:04;15.10;;;2.80;;
80748;SDS011;70145;53.746;9.970;2023-06-10T11:36:32;7.22;;;2.38;;
80748;SDS011;70145;53.746;9.970;2023-06-10T11:38:59;5.47;;;2.42;;
80748;SDS011;70145;53.746;9.970;2023-06-10T11:41:26;4.68;;;2.30;;
80748;SDS011;70145;53.746;9.970;2023-06-10T11:43:55;5.43;;;2.60;;
80748;SDS011;70145;53.746;9.970;2023-06-10T11:46:21;6.63;;;2.30;;
80748;SDS011;70145;53.746;9.970;2023-06-10T11:48:54;7.05;;;2.38;;
80748;SDS011;70145;53.746;9.970;2023-06-10T11:51:20;5.32;;;2.55;;
80748;SDS011;70145;53.746;9.970;2023-06-10T11:53:46;6.13;;;2.65;;
80748;SDS011;70145;53.746;9.970;2023-06-10T11:56:13;4.00;;;2.53;;
80748;SDS011;70145;53.746;9.970;2023-06-10T11:58:39;5.85;;;2.55;;
80748;SDS011;70145;53.746;9.970;2023-06-10T12:01:10;10.00;;;2.60;;
80748;SDS011;70145;53.746;9.970;2023-06-10T12:03:35;6.80;;;2.42;;
80748;SDS011;70145;53.746;9.970;2023-06-10T12:06:04;4.28;;;2.30;;
80748;SDS011;70145;53.746;9.970;2023-06-10T12:08:31;5.90;;;2.25;;
80748;SDS011;70145;53.746;9.970;2023-06-10T12:10:56;5.05;;;2.65;;
80748;SDS011;70145;53.746;9.970;2023-06-10T12:13:22;4.75;;;2.25;;
80748;SDS011;70145;53.746;9.970;2023-06-10T12:15:49;4.03;;;2.17;;
80748;SDS011;70145;53.746;9.970;2023-06-10T12:18:15;3.92;;;2.10;;
80748;SDS011;70145;53.746;9.970;2023-06-10T12:20:43;5.72;;;2.35;;
80748;SDS011;70145;53.746;9.970;2023-06-10T12:23:09;4.25;;;1.92;;
80748;SDS011;70145;53.746;9.970;2023-06-10T12:25:34;10.63;;;2.88;;
80748;SDS011;70145;53.746;9.970;2023-06-10T12:28:02;5.50;;;1.90;;
80748;SDS011;70145;53.746;9.970;2023-06-10T12:30:28;3.83;;;2.20;;
80748;SDS011;70145;53.746;9.970;2023-06-10T12:32:54;5.40;;;2.47;;
80748;SDS011;70145;53.746;9.970;2023-06-10T12:35:23;4.90;;;2.13;;
80748;SDS011;70145;53.746;9.970;2023-06-10T12:40:28;3.33;;;2.00;;
80748;SDS011;70145;53.746;9.970;2023-06-10T12:42:58;6.55;;;1.90;;
80748;SDS011;70145;53.746;9.970;2023-06-10T12:45:27;4.78;;;2.20;;
80748;SDS011;70145;53.746;9.970;2023-06-10T12:48:05;5.82;;;2.05;;
80748;SDS011;70145;53.746;9.970;2023-06-10T12:50:44;5.13;;;2.67;;
80748;SDS011;70145;53.746;9.970;2023-06-10T12:53:12;6.72;;;2.42;;
80748;SDS011;70145;53.746;9.970;2023-06-10T12:55:37;4.00;;;1.92;;
80748;SDS011;70145;53.746;9.970;2023-06-10T12:58:03;5.10;;;2.38;;
80748;SDS011;70145;53.746;9.970;2023-06-10T13:00:29;5.47;;;2.13;;
80748;SDS011;70145;53.746;9.970;2023-06-10T13:02:59;4.55;;;2.00;;
80748;SDS011;70145;53.746;9.970;2023-06-10T13:05:30;5.75;;;2.10;;
80748;SDS011;70145;53.746;9.970;2023-06-10T13:07:56;3.50;;;1.67;;
80748;SDS011;70145;53.746;9.970;2023-06-10T13:10:22;12.75;;;2.13;;
80748;SDS011;70145;53.746;9.970;2023-06-10T13:12:48;5.60;;;2.10;;
80748;SDS011;70145;53.746;9.970;2023-06-10T13:15:14;4.97;;;2.35;;
80748;SDS011;70145;53.746;9.970;2023-06-10T13:17:41;4.82;;;2.45;;
80748;SDS011;70145;53.746;9.970;2023-06-10T13:20:07;4.43;;;1.65;;
80748;SDS011;70145;53.746;9.970;2023-06-10T13:22:34;4.22;;;2.00;;
80748;SDS011;70145;53.746;9.970;2023-06-10T13:25:02;4.40;;;1.60;;
80748;SDS011;70145;53.746;9.970;2023-06-10T13:27:28;6.57;;;2.33;;
80748;SDS011;70145;53.746;9.970;2023-06-10T13:29:53;4.97;;;1.80;;
80748;SDS011;70145;53.746;9.970;2023-06-10T13:32:19;5.35;;;1.88;;
80748;SDS011;70145;53.746;9.970;2023-06-10T13:34:44;6.68;;;2.25;;
80748;SDS011;70145;53.746;9.970;2023-06-10T13:37:10;7.70;;;2.08;;
80748;SDS011;70145;53.746;9.970;2023-06-10T13:39:37;4.95;;;1.77;;
80748;SDS011;70145;53.746;9.970;2023-06-10T13:42:03;3.60;;;1.90;;
80748;SDS011;70145;53.746;9.970;2023-06-10T13:44:28;5.45;;;1.92;;
80748;SDS011;70145;53.746;9.970;2023-06-10T13:46:55;5.53;;;2.83;;
80748;SDS011;70145;53.746;9.970;2023-06-10T13:49:21;2.65;;;1.75;;
80748;SDS011;70145;53.746;9.970;2023-06-10T13:51:46;7.13;;;2.63;;
80748;SDS011;70145;53.746;9.970;2023-06-10T13:54:12;5.07;;;2.35;;
80748;SDS011;70145;53.746;9.970;2023-06-10T13:56:39;4.50;;;1.77;;
80748;SDS011;70145;53.746;9.970;2023-06-10T13:59:04;6.82;;;2.47;;
80748;SDS011;70145;53.746;9.970;2023-06-10T14:01:30;4.00;;;2.40;;
80748;SDS011;70145;53.746;9.970;2023-06-10T14:03:55;4.57;;;2.10;;
80748;SDS011;70145;53.746;9.970;2023-06-10T14:06:21;3.63;;;1.85;;
80748;SDS011;70145;53.746;9.970;2023-06-10T14:08:47;4.00;;;1.73;;
80748;SDS011;70145;53.746;9.970;2023-06-10T14:11:12;4.35;;;2.10;;
80748;SDS011;70145;53.746;9.970;2023-06-10T14:13:38;4.57;;;1.60;;
80748;SDS011;70145;53.746;9.970;2023-06-10T14:16:06;4.57;;;2.15;;
80748;SDS011;70145;53.746;9.970;2023-06-10T14:18:32;4.22;;;1.92;;
80748;SDS011;70145;53.746;9.970;2023-06-10T14:20:57;5.57;;;1.88;;
80748;SDS011;70145;53.746;9.970;2023-06-10T14:23:22;6.17;;;2.50;;
80748;SDS011;70145;53.746;9.970;2023-06-10T14:25:49;6.55;;;2.00;;
80748;SDS011;70145;53.746;9.970;2023-06-10T14:28:15;4.07;;;2.13;;
80748;SDS011;70145;53.746;9.970;2023-06-10T14:30:40;4.03;;;2.20;;
80748;SDS011;70145;53.746;9.970;2023-06-10T14:33:05;6.70;;;1.80;;
80748;SDS011;70145;53.746;9.970;2023-06-10T14:35:30;4.83;;;2.10;;
80748;SDS011;70145;53.746;9.970;2023-06-10T14:37:56;5.50;;;1.83;;
80748;SDS011;70145;53.746;9.970;2023-06-10T14:40:30;6.13;;;2.00;;
80748;SDS011;70145;53.746;9.970;2023-06-10T14:42:56;7.15;;;1.92;;
80748;SDS011;70145;53.746;9.970;2023-06-10T14:45:22;8.18;;;2.25;;
80748;SDS011;70145;53.746;9.970;2023-06-10T14:47:47;3.92;;;2.35;;
80748;SDS011;70145;53.746;9.970;2023-06-10T14:50:13;4.30;;;2.45;;
80748;SDS011;70145;53.746;9.970;2023-06-10T14:52:38;4.93;;;2.08;;
80748;SDS011;70145;53.746;9.970;2023-06-10T14:55:04;5.88;;;2.58;;
80748;SDS011;70145;53.746;9.970;2023-06-10T14:57:30;4.20;;;1.67;;
80748;SDS011;70145;53.746;9.970;2023-06-10T14:59:55;6.30;;;1.97;;
80748;SDS011;70145;53.746;9.970;2023-06-10T15:02:21;5.70;;;1.92;;
80748;SDS011;70145;53.746;9.970;2023-06-10T15:04:47;6.18;;;1.88;;
80748;SDS011;70145;53.746;9.970;2023-06-10T15:07:12;5.25;;;2.20;;
80748;SDS011;70145;53.746;9.970;2023-06-10T15:09:40;4.88;;;1.77;;
80748;SDS011;70145;53.746;9.970;2023-06-10T15:12:05;3.75;;;2.13;;